Time;durP1;ratioP1;P1;durP2;ratioP2;P2;SDS_P1;SDS_P2;PMS_P1;PMS_P2;Temp;Humidity;BMP_temperature;BMP_pressure;BME280_temperature;BME280_humidity;BME280_pressure;Samples;Min_cycle;Max_cycle;Signal;HPM_P1;HPM_P2
2021/10/24 00:01:03;;;;;;;7.70;3.55;;;;;;;7.39;64.26;96822.94;5065967;28;20139;-51
2021/10/24 00:03:31;;;;;;;5.65;3.40;;;;;;;7.46;63.65;96824.19;5090757;28;20550;-50
2021/10/24 00:05:59;;;;;;;7.20;3.50;;;;;;;7.33;64.20;96826.81;5091260;28;20048;-46
2021/10/24 00:08:26;;;;;;;6.75;3.45;;;;;;;7.20;64.67;96826.41;5085879;28;20041;-47
2021/10/24 00:10:53;;;;;;;6.82;3.42;;;;;;;7.26;64.60;96827.16;5071004;28;20125;-50
2021/10/24 00:13:20;;;;;;;8.13;3.97;;;;;;;7.27;64.25;96826.06;5070094;28;20108;-48
2021/10/24 00:15:47;;;;;;;11.35;4.53;;;;;;;7.21;64.35;96813.75;5084543;28;20040;-51
2021/10/24 00:18:14;;;;;;;7.18;3.53;;;;;;;7.29;64.07;96826.56;5091119;28;20044;-49
2021/10/24 00:20:41;;;;;;;8.20;3.90;;;;;;;7.37;63.57;96820.53;5092360;28;20141;-54
2021/10/24 00:23:08;;;;;;;7.50;3.42;;;;;;;7.30;63.56;96819.31;5094227;28;20476;-53
2021/10/24 00:25:35;;;;;;;8.80;3.78;;;;;;;7.34;63.80;96814.94;5093459;28;20405;-49
2021/10/24 00:28:02;;;;;;;7.10;3.20;;;;;;;7.43;63.43;96808.59;5094750;28;20459;-50
2021/10/24 00:30:46;;;;;;;;;;;;;;;7.40;63.40;96813.78;5093640;28;20089;-50
2021/10/24 00:33:13;;;;;;;7.75;3.28;;;;;;;7.54;62.61;96803.06;5094185;28;20297;-49
2021/10/24 00:35:40;;;;;;;6.72;3.10;;;;;;;7.53;62.66;96807.66;5093667;28;20074;-53
2021/10/24 00:38:07;;;;;;;8.93;3.40;;;;;;;7.32;63.46;96798.28;5093626;28;20050;-50
2021/10/24 00:40:34;;;;;;;7.97;3.55;;;;;;;7.36;63.46;96804.69;5078111;28;20071;-49
2021/10/24 00:43:02;;;;;;;7.43;3.38;;;;;;;7.29;63.38;96796.16;5073201;28;20470;-49
2021/10/24 00:45:29;;;;;;;7.45;3.10;;;;;;;7.18;64.06;96801.69;5073939;28;20078;-50
2021/10/24 00:47:56;;;;;;;5.68;3.05;;;;;;;7.19;63.49;96797.91;5074410;28;20072;-54
2021/10/24 00:50:24;;;;;;;5.47;3.28;;;;;;;7.23;63.58;96792.75;5056609;28;20048;-52
2021/10/24 00:52:52;;;;;;;5.68;3.40;;;;;;;7.13;63.29;96793.66;5072903;28;20098;-51
2021/10/24 00:55:23;;;;;;;7.40;2.95;;;;;;;7.07;63.94;96794.81;5073499;28;20398;-52
2021/10/24 00:57:50;;;;;;;6.50;3.17;;;;;;;7.24;63.13;96778.97;5074140;28;20041;-50
2021/10/24 01:00:17;;;;;;;6.13;2.88;;;;;;;7.15;63.42;96783.44;5080229;28;20109;-50
2021/10/24 01:02:45;;;;;;;6.60;3.22;;;;;;;7.24;63.00;96787.06;5094307;28;20071;-54
2021/10/24 01:05:14;;;;;;;8.27;3.40;;;;;;;7.15;63.35;96777.22;5092700;28;20043;-52
2021/10/24 01:07:43;;;;;;;9.38;4.05;;;;;;;7.10;63.64;96774.63;5094254;28;20047;-54
2021/10/24 01:10:15;;;;;;;12.60;4.28;;;;;;;7.15;63.13;96780.75;5074390;28;20151;-53
2021/10/24 01:12:45;;;;;;;7.00;3.15;;;;;;;6.89;64.12;96765.97;5072865;28;20123;-52
2021/10/24 01:15:12;;;;;;;5.35;2.72;;;;;;;6.93;64.21;96772.41;5086194;28;20425;-52
2021/10/24 01:17:40;;;;;;;6.03;3.13;;;;;;;6.93;63.80;96767.81;5091698;28;20044;-54
2021/10/24 01:20:08;;;;;;;5.80;2.90;;;;;;;6.80;64.26;96757.75;5092794;28;20360;-54
2021/10/24 01:22:38;;;;;;;5.55;3.10;;;;;;;6.91;64.07;96758.44;5093015;28;20044;-52
2021/10/24 01:25:07;;;;;;;9.48;3.33;;;;;;;6.92;64.32;96762.72;5092255;28;20055;-50
2021/10/24 01:27:38;;;;;;;15.18;3.65;;;;;;;6.93;63.92;96757.06;5092533;22;20754;-49
2021/10/24 01:30:06;;;;;;;9.35;3.83;;;;;;;6.71;64.75;96757.59;5071997;28;20059;-54
2021/10/24 01:32:36;;;;;;;5.53;2.85;;;;;;;6.78;64.87;96752.66;5071639;28;20072;-50
2021/10/24 01:35:05;;;;;;;6.32;3.08;;;;;;;6.89;64.41;96753.34;5071706;28;20508;-50
2021/10/24 01:37:39;;;;;;;5.63;3.00;;;;;;;6.76;64.33;96751.38;5089336;28;20041;-52
2021/10/24 01:40:10;;;;;;;5.63;2.80;;;;;;;6.81;64.34;96750.50;5065732;28;20040;-51
2021/10/24 01:42:46;;;;;;;8.65;3.08;;;;;;;6.82;64.12;96746.69;5036245;28;20412;-50
2021/10/24 01:45:14;;;;;;;7.32;2.90;;;;;;;6.99;63.67;96747.03;5051759;28;20490;-52
2021/10/24 01:47:41;;;;;;;5.63;3.08;;;;;;;6.95;63.93;96743.31;5069640;28;20507;-51
2021/10/24 01:50:08;;;;;;;6.57;3.10;;;;;;;7.04;63.50;96741.59;5072267;28;20048;-52
2021/10/24 01:52:41;;;;;;;7.78;3.20;;;;;;;6.89;64.08;96741.78;5089242;28;20076;-54
2021/10/24 01:55:09;;;;;;;;;;;;;;;6.81;64.13;96742.41;5072071;28;20045;-53
2021/10/24 01:57:36;;;;;;;8.77;3.13;;;;;;;6.79;64.26;96740.00;5072911;28;19962;-52
2021/10/24 02:00:04;;;;;;;6.25;2.90;;;;;;;6.81;64.59;96731.66;5071621;28;20036;-51
2021/10/24 02:02:59;;;;;;;7.15;3.30;;;;;;;6.53;65.02;96720.69;5073454;28;20044;-49
2021/10/24 02:05:49;;;;;;;7.30;3.13;;;;;;;6.55;65.35;96726.59;5044200;28;20056;-52
2021/10/24 02:08:17;;;;;;;10.60;3.08;;;;;;;6.54;65.44;96727.69;5071261;28;20051;-50
2021/10/24 02:10:44;;;;;;;7.18;3.45;;;;;;;6.43;65.62;96726.19;5072565;28;20115;-49
2021/10/24 02:13:13;;;;;;;6.75;3.45;;;;;;;6.66;65.14;96725.41;5071526;28;20056;-50
2021/10/24 02:15:41;;;;;;;5.85;3.20;;;;;;;6.50;65.55;96715.88;5071980;28;20036;-51
2021/10/24 02:18:10;;;;;;;6.65;3.38;;;;;;;6.53;65.38;96718.00;5071265;28;20052;-52
2021/10/24 02:20:42;;;;;;;6.07;3.28;;;;;;;6.49;65.42;96725.84;5071658;28;20055;-49
2021/10/24 02:23:09;;;;;;;7.97;3.00;;;;;;;6.61;65.06;96720.06;5070610;28;20102;-49
2021/10/24 02:25:40;;;;;;;7.60;3.33;;;;;;;6.66;64.75;96722.72;5065903;28;20079;-49
2021/10/24 02:28:08;;;;;;;6.00;3.40;;;;;;;6.68;64.57;96717.81;5088690;28;20044;-49
2021/10/24 02:30:35;;;;;;;5.72;2.90;;;;;;;6.69;64.78;96716.72;5071330;28;20075;-51
2021/10/24 02:33:22;;;;;;;5.90;3.30;;;;;;;6.59;64.88;96719.53;5072737;28;20064;-51
2021/10/24 02:36:24;;;;;;;7.68;3.33;;;;;;;6.66;64.66;96716.50;5070764;28;20167;-49
2021/10/24 02:38:59;;;;;;;5.22;3.17;;;;;;;6.52;65.20;96711.81;5069378;28;20113;-54
2021/10/24 02:41:26;;;;;;;7.93;3.53;;;;;;;6.59;64.58;96708.78;5051669;28;20037;-49
2021/10/24 02:43:58;;;;;;;7.10;3.70;;;;;;;6.71;64.42;96711.06;5051155;28;20040;-51
2021/10/24 02:46:29;;;;;;;10.13;4.75;;;;;;;6.73;64.43;96711.59;5057849;28;20404;-54
2021/10/24 02:48:57;;;;;;;8.23;3.45;;;;;;;6.54;65.06;96712.34;5062043;28;20072;-52
2021/10/24 02:51:24;;;;;;;5.10;3.15;;;;;;;6.67;64.62;96707.38;5051497;28;20048;-49
2021/10/24 02:53:54;;;;;;;7.72;3.40;;;;;;;6.82;64.05;96706.34;5067681;28;20521;-50
2021/10/24 02:56:21;;;;;;;7.35;3.20;;;;;;;6.73;64.21;96701.63;5051323;28;20088;-50
2021/10/24 02:58:48;;;;;;;7.82;4.03;;;;;;;6.73;64.40;96709.72;5069601;28;20048;-50
2021/10/24 03:01:16;;;;;;;5.65;3.30;;;;;;;6.51;64.80;96696.78;5072010;28;20085;-49
2021/10/24 03:03:43;;;;;;;5.18;3.10;;;;;;;6.51;64.93;96691.41;5070869;28;20067;-51
2021/10/24 03:06:10;;;;;;;7.32;3.80;;;;;;;6.42;65.38;96690.44;5072189;28;20040;-53
2021/10/24 03:08:37;;;;;;;6.63;3.00;;;;;;;6.42;65.63;96686.94;5070534;28;20052;-51
2021/10/24 03:11:04;;;;;;;4.95;3.03;;;;;;;6.24;66.06;96692.00;5071060;28;20109;-52
2021/10/24 03:13:31;;;;;;;8.20;3.55;;;;;;;6.21;66.64;96687.19;5071969;28;20105;-51
2021/10/24 03:15:59;;;;;;;7.95;3.80;;;;;;;6.11;66.70;96695.38;5070957;28;20424;-51
2021/10/24 03:18:28;;;;;;;6.57;3.53;;;;;;;6.26;66.17;96679.06;5086122;28;20048;-53
2021/10/24 03:20:55;;;;;;;7.97;3.10;;;;;;;6.48;65.63;96688.50;5087574;28;20056;-51
2021/10/24 03:23:23;;;;;;;6.35;3.40;;;;;;;6.48;65.33;96694.66;5070478;28;20451;-50
2021/10/24 03:25:50;;;;;;;5.53;3.22;;;;;;;6.40;66.00;96695.31;5078663;28;20455;-49
2021/10/24 03:28:17;;;;;;;9.27;3.78;;;;;;;6.45;65.83;96707.88;5087360;28;20450;-52
2021/10/24 03:30:44;;;;;;;6.57;3.50;;;;;;;6.38;65.76;96700.16;5086207;28;20124;-54
2021/10/24 03:33:11;;;;;;;5.35;3.50;;;;;;;6.46;65.62;96696.84;5070634;28;20045;-53
2021/10/24 03:35:38;;;;;;;5.85;3.60;;;;;;;6.46;65.93;96694.16;5070656;28;20465;-50
2021/10/24 03:38:05;;;;;;;6.78;3.67;;;;;;;6.25;66.44;96692.78;5071421;28;20036;-49
2021/10/24 03:40:32;;;;;;;5.72;3.20;;;;;;;6.25;66.24;96698.97;5070638;28;20144;-49
2021/10/24 03:42:59;;;;;;;5.82;3.30;;;;;;;6.36;65.72;96694.28;5087521;28;20044;-49
2021/10/24 03:45:26;;;;;;;6.97;3.75;;;;;;;6.47;65.63;96692.28;5087263;28;20460;-52
2021/10/24 03:47:53;;;;;;;9.38;5.43;;;;;;;6.29;66.02;96699.19;5085661;28;20120;-49
2021/10/24 03:50:20;;;;;;;5.65;3.58;;;;;;;6.33;66.04;96695.63;5087331;28;20419;-52
2021/10/24 03:52:47;;;;;;;6.32;3.90;;;;;;;6.25;66.12;96693.59;5070636;28;20037;-49
2021/10/24 03:55:14;;;;;;;8.52;4.00;;;;;;;6.16;66.70;96695.28;5086574;28;20094;-49
2021/10/24 03:57:43;;;;;;;6.50;3.95;;;;;;;6.14;67.04;96688.59;5069981;28;20082;-50
2021/10/24 04:00:12;;;;;;;8.90;3.67;;;;;;;6.30;66.34;96698.94;5069925;28;20071;-48
2021/10/24 04:02:59;;;;;;;7.25;4.10;;;;;;;6.26;66.35;96700.56;5071452;28;20055;-51
2021/10/24 04:05:34;;;;;;;7.45;4.25;;;;;;;6.24;66.75;96697.38;5070306;28;20481;-50
2021/10/24 04:08:03;;;;;;;6.57;3.83;;;;;;;6.19;66.56;96692.03;5071369;28;20045;-53
2021/10/24 04:10:31;;;;;;;8.65;4.75;;;;;;;6.29;66.38;96691.13;5069927;28;20051;-48
2021/10/24 04:12:58;;;;;;;7.47;4.57;;;;;;;6.20;66.38;96690.94;5070357;28;20044;-50
2021/10/24 04:15:26;;;;;;;10.25;4.70;;;;;;;6.15;66.51;96674.91;5086940;28;20071;-49
2021/10/24 04:17:55;;;;;;;7.45;4.03;;;;;;;6.20;66.90;96690.94;5069592;28;20060;-54
2021/10/24 04:20:23;;;;;;;9.10;4.93;;;;;;;6.08;67.11;96696.72;5087099;28;20045;-50
2021/10/24 04:22:51;;;;;;;8.10;5.45;;;;;;;6.24;66.75;96689.31;5070005;28;20048;-51
2021/10/24 04:25:20;;;;;;;7.07;4.05;;;;;;;6.16;67.22;96699.88;5069829;28;20091;-51
2021/10/24 04:27:48;;;;;;;6.90;4.32;;;;;;;6.10;66.80;96693.75;5069790;28;20056;-50
2021/10/24 04:30:15;;;;;;;5.72;4.10;;;;;;;6.06;67.02;96690.03;5063373;28;20104;-50
2021/10/24 04:32:43;;;;;;;7.63;4.57;;;;;;;6.23;66.77;96689.56;5051272;28;20047;-49
2021/10/24 04:35:12;;;;;;;6.80;4.22;;;;;;;6.23;66.64;96690.38;5049788;28;20047;-51
2021/10/24 04:37:40;;;;;;;8.65;4.22;;;;;;;6.12;66.51;96683.53;5049976;28;20037;-52
2021/10/24 04:40:08;;;;;;;7.55;4.50;;;;;;;6.10;67.00;96680.31;5069469;28;20123;-49
2021/10/24 04:42:46;;;;;;;6.82;4.70;;;;;;;6.19;67.01;96673.22;5086816;28;20124;-49
2021/10/24 04:45:13;;;;;;;9.57;4.95;;;;;;;5.86;67.84;96674.88;5069772;28;20048;-49
2021/10/24 04:47:40;;;;;;;8.45;4.90;;;;;;;5.88;68.47;96672.69;5079901;28;20084;-52
2021/10/24 04:50:08;;;;;;;9.63;5.10;;;;;;;5.71;68.51;96662.41;5050004;28;20052;-48
2021/10/24 04:52:37;;;;;;;7.53;4.88;;;;;;;5.83;68.37;96676.25;5049929;28;20048;-51
2021/10/24 04:55:05;;;;;;;7.95;4.68;;;;;;;5.83;68.16;96665.50;5050858;28;20117;-48
2021/10/24 04:57:34;;;;;;;9.88;4.78;;;;;;;5.91;67.92;96665.97;5080642;28;20414;-49
2021/10/24 05:00:07;;;;;;;8.80;5.10;;;;;;;6.11;66.88;96668.50;5081988;28;20076;-48
2021/10/24 05:02:36;;;;;;;11.07;4.85;;;;;;;5.91;67.13;96666.78;5066564;28;20052;-49
2021/10/24 05:05:04;;;;;;;6.97;4.75;;;;;;;5.91;67.82;96672.13;5049528;28;20072;-51
2021/10/24 05:07:32;;;;;;;7.55;5.07;;;;;;;6.03;67.25;96656.47;5050570;28;20375;-50
2021/10/24 05:10:00;;;;;;;7.28;4.63;;;;;;;6.10;66.87;96664.19;5053815;28;20077;-49
2021/10/24 05:12:27;;;;;;;7.35;5.13;;;;;;;6.11;66.88;96659.63;5053382;28;20048;-51
2021/10/24 05:14:57;;;;;;;7.72;4.53;;;;;;;6.02;67.12;96652.19;5069760;28;20071;-50
2021/10/24 05:17:24;;;;;;;10.45;4.85;;;;;;;6.06;66.94;96655.91;5053104;28;20041;-49
2021/10/24 05:19:51;;;;;;;8.43;5.20;;;;;;;6.17;66.57;96639.66;5071589;28;20052;-49
2021/10/24 05:22:21;;;;;;;9.95;5.07;;;;;;;5.89;67.37;96647.47;5089915;28;20037;-51
2021/10/24 05:24:49;;;;;;;10.48;5.32;;;;;;;5.81;67.73;96654.25;5089503;28;20044;-51
2021/10/24 05:27:17;;;;;;;7.18;5.07;;;;;;;5.91;67.85;96642.59;5072968;28;20067;-52
2021/10/24 05:29:44;;;;;;;7.32;4.90;;;;;;;5.94;67.45;96643.94;5073288;28;20360;-50
2021/10/24 05:32:11;;;;;;;9.38;5.25;;;;;;;5.93;67.24;96637.78;5074063;28;20054;-48
2021/10/24 05:34:39;;;;;;;6.97;5.07;;;;;;;5.96;67.22;96636.41;5073867;28;20079;-49
2021/10/24 05:37:16;;;;;;;8.07;5.53;;;;;;;6.01;67.15;96633.66;5072717;28;20044;-52
2021/10/24 05:39:43;;;;;;;10.02;5.60;;;;;;;6.03;67.54;96631.50;5073340;28;20095;-47
2021/10/24 05:42:36;;;;;;;7.88;5.22;;;;;;;5.83;67.86;96635.19;5089401;28;20485;-53
2021/10/24 05:45:04;;;;;;;8.48;5.80;;;;;;;5.82;67.47;96620.16;5089101;28;20045;-49
2021/10/24 05:47:34;;;;;;;8.90;5.47;;;;;;;5.91;67.55;96637.22;5076421;28;20037;-53
2021/10/24 05:50:07;;;;;;;11.70;6.00;;;;;;;5.80;67.71;96636.53;5072195;28;20068;-51
2021/10/24 05:52:35;;;;;;;8.60;5.22;;;;;;;5.94;67.50;96646.63;5072608;28;20063;-51
2021/10/24 05:55:05;;;;;;;7.68;5.85;;;;;;;5.85;67.90;96641.88;5072060;28;20128;-50
2021/10/24 05:57:32;;;;;;;8.38;5.50;;;;;;;5.85;67.58;96641.88;5087675;28;20041;-50
2021/10/24 06:00:25;;;;;;;9.35;5.13;;;;;;;5.65;68.68;96636.69;5065636;28;20452;-50
2021/10/24 06:03:15;;;;;;;8.05;4.70;;;;;;;5.63;68.89;96649.59;5073098;28;20049;-53
2021/10/24 06:06:04;;;;;;;9.30;5.43;;;;;;;5.64;68.75;96640.44;5073854;28;20049;-48
2021/10/24 06:08:32;;;;;;;7.60;5.10;;;;;;;5.75;68.56;96650.03;5088297;28;20041;-52
2021/10/24 06:11:18;;;;;;;11.20;5.28;;;;;;;5.85;68.29;96647.25;5088962;28;20068;-49
2021/10/24 06:13:47;;;;;;;8.75;5.55;;;;;;;5.89;68.23;96658.22;5071811;28;20144;-52
2021/10/24 06:16:15;;;;;;;9.50;5.32;;;;;;;5.75;68.76;96655.41;5088487;28;22072;-49
2021/10/24 06:18:42;;;;;;;10.30;5.80;;;;;;;5.65;69.05;96663.53;5072710;28;20040;-48
2021/10/24 06:21:10;;;;;;;8.30;5.55;;;;;;;5.59;69.30;96662.78;5072005;28;20113;-52
2021/10/24 06:23:37;;;;;;;8.25;5.50;;;;;;;5.46;69.46;96666.13;5075922;28;20040;-50
2021/10/24 06:26:08;;;;;;;9.52;5.55;;;;;;;5.71;69.36;96669.66;5069996;28;20123;-54
2021/10/24 06:28:35;;;;;;;12.23;5.63;;;;;;;5.59;69.49;96670.03;5072794;28;20513;-51
2021/10/24 06:31:08;;;;;;;9.05;5.65;;;;;;;5.69;69.61;96669.13;5058434;28;20045;-52
2021/10/24 06:34:10;;;;;;;10.90;5.70;;;;;;;5.64;69.18;96678.03;5050194;28;20135;-51
2021/10/24 06:37:03;;;;;;;10.13;5.90;;;;;;;5.68;69.39;96675.59;5050952;28;20056;-52
2021/10/24 06:39:33;;;;;;;10.75;5.60;;;;;;;5.70;69.46;96679.59;5051822;28;20594;-52
2021/10/24 06:42:05;;;;;;;12.32;5.80;;;;;;;5.73;69.33;96667.50;5054345;28;20540;-52
2021/10/24 06:44:58;;;;;;;11.20;6.60;;;;;;;5.74;69.02;96680.63;5066090;28;20429;-52
2021/10/24 06:47:48;;;;;;;8.65;5.80;;;;;;;5.85;68.91;96684.03;5071658;28;20036;-52
2021/10/24 06:50:40;;;;;;;8.43;5.82;;;;;;;5.81;69.18;96681.09;5071387;28;20044;-53
2021/10/24 06:53:26;;;;;;;10.45;6.00;;;;;;;5.78;69.71;96687.03;5071980;28;20040;-49
2021/10/24 06:56:10;;;;;;;8.23;5.50;;;;;;;5.73;69.86;96686.28;5071788;28;20041;-50
2021/10/24 06:58:56;;;;;;;7.07;5.32;;;;;;;5.67;70.31;96693.59;5072111;28;20044;-52
2021/10/24 07:01:46;;;;;;;7.15;5.38;;;;;;;5.56;70.49;96694.78;5061523;28;20508;-50
2021/10/24 07:04:51;;;;;;;8.02;5.45;;;;;;;5.44;71.52;96687.06;5069386;28;20048;-52
2021/10/24 07:07:23;;;;;;;10.77;5.65;;;;;;;5.44;71.02;96683.59;5069177;28;20064;-52
2021/10/24 07:10:08;;;;;;;8.18;5.57;;;;;;;5.51;71.40;96681.38;5050581;28;20079;-51
2021/10/24 07:12:36;;;;;;;8.20;5.35;;;;;;;5.56;71.19;96681.34;5034419;28;20060;-51
2021/10/24 07:15:05;;;;;;;9.55;5.80;;;;;;;5.53;71.12;96679.22;5053774;28;20047;-48
2021/10/24 07:17:34;;;;;;;8.90;5.63;;;;;;;5.47;71.65;96683.81;5087467;28;20063;-52
2021/10/24 07:20:03;;;;;;;11.52;5.70;;;;;;;5.58;71.44;96681.84;5071776;28;20545;-50
2021/10/24 07:22:37;;;;;;;8.27;5.20;;;;;;;5.60;71.32;96685.06;5070669;28;20045;-48
2021/10/24 07:25:25;;;;;;;9.40;5.55;;;;;;;5.56;71.28;96678.66;5071417;28;20123;-52
2021/10/24 07:27:52;;;;;;;6.82;4.95;;;;;;;5.63;71.62;96682.63;5072038;28;20123;-51
2021/10/24 07:30:21;;;;;;;9.02;4.63;;;;;;;5.56;71.83;96675.97;5086324;28;20040;-54
2021/10/24 07:32:55;;;;;;;7.55;5.18;;;;;;;5.66;71.59;96692.00;5087454;28;20041;-54
2021/10/24 07:36:00;;;;;;;8.48;5.43;;;;;;;5.68;71.66;96687.13;5049551;28;20049;-53
2021/10/24 07:38:27;;;;;;;8.35;5.40;;;;;;;5.66;71.62;96681.25;5032035;28;20079;-54
2021/10/24 07:40:55;;;;;;;6.93;5.00;;;;;;;5.73;71.71;96688.97;5047860;28;20057;-53
2021/10/24 07:43:26;;;;;;;7.47;5.03;;;;;;;5.63;72.40;96685.28;5050179;28;20124;-52
2021/10/24 07:45:54;;;;;;;7.85;4.82;;;;;;;5.38;72.99;96685.50;5050342;28;20037;-53
2021/10/24 07:48:26;;;;;;;7.30;4.57;;;;;;;5.34;73.25;96687.94;5050357;28;20045;-52
2021/10/24 07:50:54;;;;;;;6.38;4.38;;;;;;;5.29;73.29;96679.91;5066642;28;20123;-53
2021/10/24 07:53:29;;;;;;;7.30;4.72;;;;;;;5.35;73.66;96692.22;5070322;28;20045;-52
2021/10/24 07:56:02;;;;;;;10.73;4.95;;;;;;;5.64;72.95;96683.41;5069924;28;20086;-53
2021/10/24 07:58:47;;;;;;;7.53;4.28;;;;;;;5.49;72.74;96692.41;5071611;28;20039;-52
2021/10/24 08:01:18;;;;;;;7.47;4.88;;;;;;;5.47;73.54;96696.44;5057009;28;20061;-51
2021/10/24 08:03:46;;;;;;;10.13;4.85;;;;;;;5.54;73.16;96699.59;5050013;28;20084;-54
2021/10/24 08:06:21;;;;;;;5.18;4.00;;;;;;;5.59;73.24;96688.84;5066562;28;20048;-52
2021/10/24 08:08:52;;;;;;;8.52;4.93;;;;;;;5.52;73.25;96699.88;5051846;28;20510;-51
2021/10/24 08:11:19;;;;;;;8.40;5.22;;;;;;;5.43;73.61;96698.06;5086865;28;20040;-49
2021/10/24 08:13:51;;;;;;;6.95;4.45;;;;;;;5.39;73.60;96693.28;5086635;28;20052;-51
2021/10/24 08:16:18;;;;;;;7.50;4.70;;;;;;;5.55;73.21;96693.16;5071204;28;20072;-53
2021/10/24 08:18:45;;;;;;;10.07;6.60;;;;;;;5.48;73.46;96690.00;5069261;28;20505;-51
2021/10/24 08:21:24;;;;;;;7.40;4.97;;;;;;;5.44;73.83;96694.31;5086071;28;20048;-53
2021/10/24 08:23:51;;;;;;;5.97;4.22;;;;;;;5.55;74.37;96695.81;5064593;28;20095;-52
2021/10/24 08:26:19;;;;;;;6.55;4.75;;;;;;;5.54;74.11;96689.66;5085327;28;20068;-54
2021/10/24 08:28:47;;;;;;;9.07;4.65;;;;;;;5.47;73.92;96683.81;5071930;28;20039;-53
2021/10/24 08:31:52;;;;;;;6.35;5.05;;;;;;;5.63;73.64;96692.56;4990110;28;20046;-53
2021/10/24 08:34:21;;;;;;;5.70;4.13;;;;;;;5.72;73.63;96690.88;5038735;28;20061;-52
2021/10/24 08:36:48;;;;;;;6.05;4.32;;;;;;;5.72;73.43;96682.81;5051108;28;20136;-53
2021/10/24 08:39:15;;;;;;;6.45;4.38;;;;;;;5.71;73.79;96689.25;5049785;28;20453;-52
2021/10/24 08:41:45;;;;;;;7.53;4.38;;;;;;;5.78;73.65;96687.03;5071255;28;20505;-54
2021/10/24 08:44:12;;;;;;;5.80;3.97;;;;;;;5.89;73.24;96686.97;5074676;28;20083;-53
2021/10/24 08:46:39;;;;;;;7.00;4.30;;;;;;;5.93;73.18;96686.13;5073785;28;20064;-52
2021/10/24 08:49:08;;;;;;;6.38;3.95;;;;;;;6.08;73.17;96679.81;5088244;28;20397;-55
2021/10/24 08:51:35;;;;;;;5.25;3.88;;;;;;;6.09;72.17;96695.63;5095103;28;20040;-52
2021/10/24 08:54:03;;;;;;;5.32;3.60;;;;;;;6.11;72.48;96694.53;5093309;28;20044;-53
2021/10/24 08:56:31;;;;;;;5.63;3.78;;;;;;;6.16;72.20;96683.75;5072480;28;20120;-51
2021/10/24 08:58:59;;;;;;;6.00;4.00;;;;;;;6.29;72.69;96678.50;5068057;28;20082;-51
2021/10/24 09:01:26;;;;;;;5.95;3.90;;;;;;;6.35;72.63;96681.13;5073007;28;20076;-53
2021/10/24 09:04:13;;;;;;;5.78;3.92;;;;;;;6.32;71.89;96677.91;5074278;28;20088;-52
2021/10/24 09:06:55;;;;;;;5.57;4.05;;;;;;;6.41;71.67;96674.63;5073015;28;20516;-53
2021/10/24 09:09:29;;;;;;;5.28;3.80;;;;;;;6.40;71.34;96678.38;5078316;28;20147;-52
2021/10/24 09:12:00;;;;;;;;;;;;;;;6.40;71.24;96686.44;5076089;28;20128;-51
2021/10/24 09:14:55;;;;;;;6.80;3.78;;;;;;;6.58;71.26;96684.88;5083322;28;19920;-53
2021/10/24 09:17:24;;;;;;;5.82;3.90;;;;;;;6.62;71.46;96680.53;5074129;28;20587;-52
2021/10/24 09:20:05;;;;;;;7.07;4.05;;;;;;;6.76;70.79;96687.63;5069540;28;20036;-49
2021/10/24 09:22:38;;;;;;;5.07;3.42;;;;;;;6.79;70.93;96689.72;5083592;28;20131;-51
2021/10/24 09:25:16;;;;;;;6.35;3.67;;;;;;;6.86;70.51;96685.84;5076491;28;20573;-50
2021/10/24 09:27:52;;;;;;;6.38;3.90;;;;;;;6.93;70.43;96686.31;5089952;28;20127;-50
2021/10/24 09:30:25;;;;;;;4.93;3.67;;;;;;;7.00;69.66;96684.06;5073429;28;20048;-53
2021/10/24 09:32:55;;;;;;;6.47;4.10;;;;;;;7.07;69.83;96684.50;5073899;28;20045;-50
2021/10/24 09:35:34;;;;;;;5.15;3.67;;;;;;;7.19;68.95;96690.25;5090578;28;20048;-50
2021/10/24 09:38:23;;;;;;;5.72;4.15;;;;;;;7.16;68.56;96680.06;5072911;28;20075;-49
2021/10/24 09:40:56;;;;;;;7.07;3.97;;;;;;;7.35;68.78;96681.94;5072915;28;20199;-51
2021/10/24 09:43:24;;;;;;;;;;;;;;;7.50;69.28;96674.41;5076940;28;20044;-50
2021/10/24 09:46:10;;;;;;;7.65;3.65;;;;;;;7.44;67.32;96682.88;5061378;28;19920;-54
2021/10/24 09:48:44;;;;;;;6.65;3.85;;;;;;;7.42;67.49;96685.88;5080918;28;20048;-51
2021/10/24 09:51:13;;;;;;;5.15;3.35;;;;;;;7.46;67.94;96683.38;5088785;28;20050;-53
2021/10/24 09:53:46;;;;;;;6.13;3.90;;;;;;;7.47;67.28;96682.28;5076193;28;20040;-51
2021/10/24 09:56:17;;;;;;;5.05;3.53;;;;;;;7.54;67.28;96674.66;5088692;28;20044;-53
2021/10/24 09:58:46;;;;;;;7.35;3.55;;;;;;;7.65;67.28;96676.06;5079501;28;20029;-53
2021/10/24 10:01:19;;;;;;;5.88;3.95;;;;;;;7.58;66.34;96675.66;5068621;28;20687;-54
2021/10/24 10:03:48;;;;;;;5.35;3.58;;;;;;;7.63;66.62;96678.25;5089966;28;20098;-54
2021/10/24 10:06:19;;;;;;;6.93;3.70;;;;;;;7.69;67.14;96678.97;5080967;28;20461;-53
2021/10/24 10:08:46;;;;;;;9.10;5.13;;;;;;;7.79;66.24;96680.69;5077790;28;20032;-50
2021/10/24 10:11:25;;;;;;;5.80;3.78;;;;;;;7.82;66.45;96670.13;5073172;28;20041;-51
2021/10/24 10:14:03;;;;;;;5.40;3.60;;;;;;;8.07;65.09;96674.25;5063980;28;20048;-53
2021/10/24 10:16:50;;;;;;;6.03;3.50;;;;;;;8.05;66.14;96673.75;5073413;28;20045;-54
2021/10/24 10:19:28;;;;;;;6.05;3.72;;;;;;;8.23;66.27;96674.00;5068565;28;20449;-49
2021/10/24 10:21:55;;;;;;;5.53;3.42;;;;;;;8.26;65.14;96654.53;5072633;28;20501;-51
2021/10/24 10:24:34;;;;;;;5.57;3.50;;;;;;;8.32;65.08;96661.38;5072862;28;20052;-50
2021/10/24 10:27:22;;;;;;;4.65;3.40;;;;;;;8.32;64.69;96656.81;5071368;28;20074;-52
2021/10/24 10:29:57;;;;;;;5.30;3.60;;;;;;;8.75;62.37;96658.41;5072293;28;20028;-54
2021/10/24 10:32:39;;;;;;;5.90;3.55;;;;;;;8.62;63.85;96660.81;5073018;28;20052;-50
2021/10/24 10:35:08;;;;;;;5.00;3.20;;;;;;;8.65;62.70;96651.34;5072654;28;20049;-55
2021/10/24 10:37:57;;;;;;;4.68;3.13;;;;;;;8.68;62.78;96663.41;5072753;28;20118;-53
2021/10/24 10:40:34;;;;;;;6.22;3.92;;;;;;;8.74;62.16;96657.63;5072351;28;20068;-53
2021/10/24 10:43:11;;;;;;;6.50;4.00;;;;;;;9.19;61.20;96656.88;5076987;28;20080;-51
2021/10/24 10:45:41;;;;;;;6.20;4.20;;;;;;;9.12;62.52;96652.72;5072854;28;20131;-50
2021/10/24 10:48:32;;;;;;;7.03;3.72;;;;;;;9.31;61.91;96655.25;5061251;28;20045;-50
2021/10/24 10:51:22;;;;;;;6.70;3.30;;;;;;;9.40;61.26;96649.13;5049434;28;20051;-52
2021/10/24 10:54:00;;;;;;;5.05;3.30;;;;;;;9.67;59.15;96645.47;5052515;28;20132;-50
2021/10/24 10:56:29;;;;;;;4.70;3.22;;;;;;;9.90;59.46;96648.97;5055829;28;20047;-52
2021/10/24 10:58:58;;;;;;;4.90;3.30;;;;;;;9.96;57.67;96643.09;5072522;28;20032;-51
2021/10/24 11:01:33;;;;;;;4.80;2.80;;;;;;;10.29;58.28;96638.19;5069509;28;20213;-54
2021/10/24 11:04:06;;;;;;;5.53;2.95;;;;;;;10.40;56.25;96641.41;5063927;28;20054;-53
2021/10/24 11:06:33;;;;;;;5.32;2.97;;;;;;;10.62;56.23;96635.09;5065109;28;20140;-51
2021/10/24 11:09:12;;;;;;;4.75;3.22;;;;;;;10.88;56.79;96623.53;5055001;28;20047;-54
2021/10/24 11:14:15;;;;;;;3.45;2.45;;;;;;;11.31;56.29;96631.69;5070875;28;20059;-54
2021/10/24 11:16:46;;;;;;;4.60;2.70;;;;;;;11.54;55.32;96623.38;5072233;28;20052;-54
2021/10/24 11:22:11;;;;;;;4.60;2.47;;;;;;;11.62;55.24;96617.91;5071484;28;20049;-50
2021/10/24 11:24:44;;;;;;;4.43;2.65;;;;;;;11.85;54.98;96617.75;5071652;28;20158;-54
2021/10/24 11:27:15;;;;;;;5.43;2.60;;;;;;;11.96;53.22;96613.56;5067426;28;20506;-49
2021/10/24 11:29:56;;;;;;;4.80;2.75;;;;;;;11.99;51.79;96606.69;5055870;28;20388;-54
2021/10/24 11:32:23;;;;;;;4.45;2.70;;;;;;;11.90;52.86;96609.44;5065729;28;20510;-50
2021/10/24 11:34:57;;;;;;;5.95;2.70;;;;;;;11.99;49.66;96609.41;5071397;28;20059;-50
2021/10/24 11:37:39;;;;;;;6.25;2.65;;;;;;;12.04;50.76;96606.50;5071624;28;20349;-54
2021/10/24 11:40:14;;;;;;;7.63;3.40;;;;;;;11.99;52.61;96606.69;5053820;28;20041;-53
2021/10/24 11:42:59;;;;;;;3.28;2.17;;;;;;;12.15;52.98;96603.13;5051726;28;20174;-49
2021/10/24 11:45:30;;;;;;;5.15;2.30;;;;;;;12.61;50.94;96596.03;5052358;28;20118;-53
2021/10/24 11:48:03;;;;;;;4.32;2.45;;;;;;;12.77;50.11;96590.81;5063063;28;20048;-50
2021/10/24 11:50:49;;;;;;;;;;;;;;;12.57;51.35;96591.56;5069893;28;20064;-50
2021/10/24 11:53:23;;;;;;;3.30;2.13;;;;;;;12.68;51.32;96590.06;5086534;28;19958;-49
2021/10/24 11:55:53;;;;;;;5.07;3.22;;;;;;;12.93;50.40;96585.56;5070167;28;20569;-52
2021/10/24 12:01:10;;;;;;;10.07;2.60;;;;;;;12.89;49.49;96583.84;5060714;28;20045;-50
2021/10/24 12:03:40;;;;;;;5.00;2.60;;;;;;;13.29;49.13;96590.44;5063099;28;20136;-51
2021/10/24 12:06:11;;;;;;;5.50;2.50;;;;;;;13.42;51.26;96590.47;5070378;28;20048;-49
2021/10/24 12:08:43;;;;;;;5.47;2.65;;;;;;;13.72;50.12;96586.50;5066766;28;20048;-49
2021/10/24 12:11:13;;;;;;;6.07;2.65;;;;;;;13.90;46.32;96591.75;5069837;28;20577;-51
2021/10/24 12:13:41;;;;;;;4.22;2.75;;;;;;;14.25;44.90;96587.47;5068773;28;20135;-51